• Join FlightAware (Why Join?)
  • Login
  • US Flag 
10:32PM EDT


 

Airport Tracker/Info


-or-


 

Live Flight TrackerFlight Track Log ✈ SWA305 ✈ 16-Jun-2013 ✈ KAUS - KHOU

Flight Track Log - Related Links

Times and Time Zones

All times are in EDT time to prevent confusion due to time zone crossing. See the SWA305 flight status page for this flight to view local times or setup timezone preferences in your user account.

Time Position Orientation Groundspeed Altitude Reporting Facility
EDT Latitude Longitude Course Direction KTS MPH feet Rate Location/Type
07:42PM 30.2000 -97.4492 65° Northeast 288 331 10,500  Level Houston Center
07:43PM 30.2414 -97.3511 64° Northeast 335 386 12,100 2,220 Climbing Houston Center
07:44PM 30.2872 -97.2375 65° Northeast 381 438 15,100 3,000 Climbing Houston Center
07:45PM 30.3650 -97.3051 99° East  Level FlightAware Approximate
07:45PM 30.3347 -97.1222 64° Northeast 393 452 18,300  Level Houston Center
07:46PM 30.3517 -97.2117 99° East  Level FlightAware Approximate
07:46PM 30.3458 -96.9978 84° East 398 458 21,100  Level Houston Center
07:47PM 30.3500 -97.1172 90° East  Level FlightAware Approximate
07:48PM 30.3364 -96.8622 95° East 418 481 22,900  Level Houston Center
07:49PM 30.3125 -96.7239 101° East 434 499 21,200 -2,280 Descending Houston Center
07:50PM 30.2806 -96.5672 103° East 425 489 18,200 -2,760 Descending Houston Center
07:51PM 30.2533 -96.4386 104° East 410 472 15,500 -2,640 Descending Houston Center
07:51PM 30.2347 -96.3500 104° East 406 467 13,700 -2,520 Descending Houston Center
07:52PM 30.2281 -96.3139 102° East 398 458 12,900 -2,220 Descending Houston Center
07:53PM 30.1953 -96.2069 110° East 375 432 11,000 -1,020 Descending Houston Center
07:54PM 30.1050 -96.1522 152° Southeast 353 406 10,900 -60 Descending Houston Center
07:55PM 30.0489 -96.0725 129° Southeast 315 362 10,900 -360 Level Houston Center
07:56PM 29.9967 -95.9797 123° Southeast 299 344 10,200 -960 Descending Houston Center
07:57PM 29.9517 -95.9003 123° Southeast 297 342 9,000 -720 Descending Houston Center
07:58PM 29.9006 -95.8328 131° Southeast 288 331 8,800 -1,020 Descending Houston Center
07:59PM 29.8297 -95.7664 141° Southeast 288 331 7,000 -1,320 Descending Houston Center
08:00PM 29.8050 -95.6778 108° East 277 319 6,000 -900 Descending Houston Center
08:01PM 29.7847 -95.6058 108° East 277 319 5,200 -720 Descending Houston Center
08:02PM 29.7617 -95.5217 107° East 243 280 4,700 -960 Descending Houston Center
08:03PM 29.7406 -95.4497 109° East 227 261 3,400 -1,320 Descending Houston Center
08:04PM 29.7189 -95.3753 109° East 212 244 2,000 -1,080 Descending Houston Center
08:05PM 29.6897 -95.3331 128° Southeast 147 169 1,200 -780 Descending Houston Center
08:06PM 29.6639 -95.3025 134° Southeast 127 146 500 -720 Descending Houston Center
08:09PM 29.6454 -95.2789 125° Southeast  Level Estimated